createdAt,value
2023-05-21T00:00:31.962Z,77.05
2023-05-21T00:03:01.608Z,77.60
2023-05-21T00:05:29.797Z,78.83
2023-05-21T00:07:58.069Z,78.48
2023-05-21T00:10:26.700Z,78.50
2023-05-21T00:12:54.836Z,78.70
2023-05-21T00:15:34.629Z,78.20
2023-05-21T00:18:04.587Z,78.48
2023-05-21T00:20:33.481Z,78.73
2023-05-21T00:23:02.896Z,78.03
2023-05-21T00:25:31.598Z,79.54
2023-05-21T00:28:00.123Z,79.65
2023-05-21T00:30:28.525Z,80.33
2023-05-21T00:32:59.158Z,81.26
2023-05-21T00:35:28.796Z,81.58
2023-05-21T00:37:57.468Z,81.91
2023-05-21T00:40:26.329Z,82.04
2023-05-21T00:42:57.243Z,82.61
2023-05-21T00:45:25.781Z,83.11
2023-05-21T00:47:55.862Z,82.80
2023-05-21T00:50:24.740Z,82.21
2023-05-21T00:52:54.659Z,82.60
2023-05-21T00:55:23.066Z,82.20
2023-05-21T00:57:51.902Z,82.46
2023-05-21T01:00:21.703Z,83.14
2023-05-21T01:02:50.142Z,83.61
2023-05-21T01:05:18.409Z,83.17
2023-05-21T01:07:46.792Z,83.49
2023-05-21T01:10:16.959Z,84.46
2023-05-21T01:12:46.109Z,84.75
2023-05-21T01:15:14.881Z,85.29
2023-05-21T01:17:46.183Z,85.16
2023-05-21T01:20:18.236Z,85.34
2023-05-21T01:22:53.705Z,85.41
2023-05-21T01:25:23.029Z,85.52
2023-05-21T01:27:51.379Z,84.74
2023-05-21T01:30:21.862Z,83.91
2023-05-21T01:32:56.011Z,84.09
2023-05-21T01:35:30.015Z,84.31
2023-05-21T01:38:11.406Z,84.25
2023-05-21T01:40:46.854Z,83.62
2023-05-21T01:43:16.089Z,83.69
2023-05-21T01:45:46.433Z,84.26
2023-05-21T01:48:17.483Z,82.97
2023-05-21T01:50:47.450Z,83.00
2023-05-21T01:53:17.458Z,83.27
2023-05-21T01:55:46.163Z,83.85
2023-05-21T01:58:15.754Z,83.43
2023-05-21T02:00:45.593Z,84.00
2023-05-21T02:03:14.973Z,84.73
2023-05-21T02:05:43.201Z,85.72
2023-05-21T02:08:13.010Z,86.45
2023-05-21T02:10:42.880Z,85.25
2023-05-21T02:13:11.477Z,85.12
2023-05-21T02:15:40.304Z,85.07
2023-05-21T02:18:09.717Z,86.65
2023-05-21T02:20:37.848Z,86.71
2023-05-21T02:23:06.216Z,87.30
2023-05-21T02:25:34.870Z,87.60
2023-05-21T02:28:05.113Z,87.34
2023-05-21T02:30:33.364Z,87.55
2023-05-21T02:33:02.985Z,88.28
2023-05-21T02:35:32.341Z,88.82
2023-05-21T02:38:03.268Z,89.41
2023-05-21T02:40:32.927Z,89.01
2023-05-21T02:43:01.170Z,88.93
2023-05-21T02:45:31.458Z,89.17
2023-05-21T02:48:00.825Z,89.30
2023-05-21T02:50:29.403Z,89.56
2023-05-21T02:52:59.734Z,89.68
2023-05-21T02:55:28.149Z,88.95
2023-05-21T02:57:56.638Z,89.27
2023-05-21T03:00:24.765Z,89.44
2023-05-21T03:02:54.662Z,88.74
2023-05-21T03:05:23.377Z,87.38
2023-05-21T03:07:51.501Z,86.99
2023-05-21T03:10:19.727Z,87.29
2023-05-21T03:12:48.613Z,87.42
2023-05-21T03:15:18.304Z,87.40
2023-05-21T03:17:46.545Z,86.01
2023-05-21T03:20:20.921Z,85.29
2023-05-21T03:22:49.972Z,84.74
2023-05-21T03:25:18.379Z,84.20
2023-05-21T03:27:46.834Z,83.99
2023-05-21T03:30:15.297Z,84.35
2023-05-21T03:32:45.369Z,84.78
2023-05-21T03:35:13.530Z,84.11
2023-05-21T03:37:43.110Z,83.32
2023-05-21T03:40:12.018Z,82.44
2023-05-21T03:42:40.554Z,81.43
2023-05-21T03:45:09.597Z,80.44
2023-05-21T03:47:38.165Z,81.02
2023-05-21T03:50:07.503Z,80.69
2023-05-21T03:52:35.730Z,81.17
2023-05-21T03:55:06.141Z,81.09
2023-05-21T03:57:34.224Z,80.46
2023-05-21T04:00:02.781Z,79.57
2023-05-21T04:02:31.025Z,78.20
2023-05-21T04:04:59.654Z,77.89
2023-05-21T04:07:30.129Z,77.91
2023-05-21T04:09:59.429Z,77.47
2023-05-21T04:12:28.996Z,76.47
2023-05-21T04:14:57.130Z,75.59
2023-05-21T04:17:27.098Z,76.33
2023-05-21T04:19:55.615Z,76.95
2023-05-21T04:22:26.882Z,76.40
2023-05-21T04:24:56.004Z,76.87
2023-05-21T04:27:24.967Z,76.29
2023-05-21T04:29:58.116Z,76.51
2023-05-21T04:32:28.674Z,75.74
2023-05-21T04:34:56.869Z,75.71
2023-05-21T04:37:25.726Z,74.59
2023-05-21T04:39:54.793Z,74.61
2023-05-21T04:42:24.073Z,73.78
2023-05-21T04:44:52.301Z,74.32
2023-05-21T04:47:22.305Z,73.88
2023-05-21T04:49:50.901Z,73.77
2023-05-21T04:52:19.063Z,73.90
2023-05-21T04:54:47.957Z,72.53
2023-05-21T04:57:19.798Z,73.56
2023-05-21T04:59:47.939Z,73.38
2023-05-21T05:02:16.333Z,72.52
2023-05-21T05:04:46.567Z,72.32
2023-05-21T05:07:15.129Z,71.95
2023-05-21T05:09:43.286Z,71.29
2023-05-21T05:12:15.381Z,70.22
2023-05-21T05:14:43.464Z,70.01
2023-05-21T05:17:11.544Z,70.40
2023-05-21T05:19:40.263Z,69.17
2023-05-21T05:22:13.317Z,69.27
2023-05-21T05:24:41.903Z,68.48
2023-05-21T05:27:09.994Z,67.85
2023-05-21T05:29:38.250Z,67.95
2023-05-21T05:32:08.006Z,68.12
2023-05-21T05:34:36.155Z,66.93
2023-05-21T05:37:04.634Z,66.52
2023-05-21T05:39:34.963Z,66.12
2023-05-21T05:42:03.375Z,67.11
2023-05-21T05:44:31.750Z,67.63
2023-05-21T05:46:59.871Z,67.38
2023-05-21T05:49:28.252Z,66.61
2023-05-21T05:51:56.826Z,66.03
2023-05-21T05:54:25.054Z,65.06
2023-05-21T05:56:54.606Z,64.29
2023-05-21T05:59:22.790Z,64.60
2023-05-21T06:01:50.940Z,63.47
2023-05-21T06:04:19.086Z,62.62
2023-05-21T06:06:48.384Z,60.75
2023-05-21T06:09:16.914Z,60.51
2023-05-21T06:11:45.123Z,60.72
2023-05-21T06:14:20.702Z,60.03
2023-05-21T06:16:48.801Z,60.17
2023-05-21T06:19:17.126Z,60.34
2023-05-21T06:21:45.707Z,58.54
2023-05-21T06:24:14.636Z,59.00
2023-05-21T06:26:42.719Z,58.58
2023-05-21T06:29:17.421Z,57.43
2023-05-21T06:31:45.543Z,57.32
2023-05-21T06:34:14.199Z,57.78
2023-05-21T06:36:42.464Z,56.18
2023-05-21T06:39:14.094Z,55.15
2023-05-21T06:41:42.571Z,56.97
2023-05-21T06:44:20.862Z,56.35
2023-05-21T06:46:48.950Z,54.84
2023-05-21T06:49:17.155Z,54.48
2023-05-21T06:51:45.309Z,54.06
2023-05-21T06:54:16.723Z,53.29
2023-05-21T06:56:44.878Z,50.18
2023-05-21T06:59:13.308Z,51.86
2023-05-21T07:01:44.075Z,52.13
2023-05-21T07:04:12.805Z,51.40
2023-05-21T07:06:41.257Z,51.03
2023-05-21T07:09:10.536Z,50.36
2023-05-21T07:11:39.007Z,50.14
2023-05-21T07:14:07.570Z,49.42
2023-05-21T07:16:35.725Z,46.78
2023-05-21T07:19:05.703Z,46.65
2023-05-21T07:21:34.023Z,46.25
2023-05-21T07:24:02.228Z,46.55
2023-05-21T07:26:30.314Z,44.88
2023-05-21T07:28:58.476Z,44.74
2023-05-21T07:31:27.194Z,44.01
2023-05-21T07:33:55.672Z,44.97
2023-05-21T07:36:27.598Z,44.62
2023-05-21T07:38:55.993Z,44.36
2023-05-21T07:41:24.200Z,43.62
2023-05-21T07:43:52.684Z,45.22
2023-05-21T07:46:20.928Z,46.27
2023-05-21T07:48:50.068Z,46.34
2023-05-21T07:51:18.727Z,45.56
2023-05-21T07:53:48.305Z,45.03
2023-05-21T07:56:16.542Z,44.44
2023-05-21T07:58:46.023Z,45.13
2023-05-21T08:01:14.409Z,43.62
2023-05-21T08:03:42.940Z,44.60
2023-05-21T08:06:12.150Z,44.19
2023-05-21T08:08:40.268Z,44.09
2023-05-21T08:11:10.346Z,43.86
2023-05-21T08:13:38.517Z,43.36
2023-05-21T08:16:07.409Z,43.03
2023-05-21T08:18:35.537Z,43.58
2023-05-21T08:21:04.569Z,43.42
2023-05-21T08:23:32.655Z,43.39
2023-05-21T08:26:00.889Z,43.49
2023-05-21T08:28:31.354Z,42.89
2023-05-21T08:30:59.928Z,41.80
2023-05-21T08:33:28.971Z,41.49
2023-05-21T08:36:01.723Z,40.94
2023-05-21T08:38:31.322Z,41.07
2023-05-21T08:41:01.556Z,40.04
2023-05-21T08:43:31.272Z,40.60
2023-05-21T08:46:07.533Z,40.67
2023-05-21T08:48:37.905Z,41.67
2023-05-21T08:51:07.366Z,41.85
2023-05-21T08:53:36.049Z,41.73
2023-05-21T08:56:04.839Z,41.33
2023-05-21T08:58:35.660Z,40.35
2023-05-21T09:01:06.255Z,39.91
2023-05-21T09:03:34.837Z,39.79
2023-05-21T09:06:03.404Z,39.74
2023-05-21T09:08:37.107Z,38.76
2023-05-21T09:11:05.878Z,38.56
2023-05-21T09:13:38.972Z,39.12
2023-05-21T09:16:09.308Z,39.89
2023-05-21T09:18:38.318Z,39.61
2023-05-21T09:21:27.784Z,40.61
2023-05-21T09:23:57.788Z,40.76
2023-05-21T09:26:26.740Z,40.67
2023-05-21T09:29:01.162Z,40.35
2023-05-21T09:31:31.030Z,40.03
2023-05-21T09:33:59.433Z,39.88
2023-05-21T09:36:29.572Z,40.80
2023-05-21T09:39:00.395Z,40.38
2023-05-21T09:41:36.301Z,39.79
2023-05-21T09:44:06.375Z,40.50
2023-05-21T09:46:41.990Z,39.89
2023-05-21T09:49:24.922Z,40.14
2023-05-21T09:51:58.169Z,40.44
2023-05-21T09:54:32.973Z,38.75
2023-05-21T09:57:03.104Z,39.53
2023-05-21T09:59:39.819Z,39.22
2023-05-21T10:02:19.149Z,37.72
2023-05-21T10:04:50.142Z,37.99
2023-05-21T10:07:21.879Z,38.10
2023-05-21T10:09:51.284Z,38.40
2023-05-21T10:12:20.951Z,39.39
2023-05-21T10:14:56.507Z,37.79
2023-05-21T10:17:26.699Z,38.25
2023-05-21T10:19:57.724Z,38.23
2023-05-21T10:22:26.787Z,38.93
2023-05-21T10:24:55.672Z,38.17
2023-05-21T10:27:24.395Z,39.83
2023-05-21T10:29:58.306Z,39.64
2023-05-21T10:32:28.377Z,40.00
2023-05-21T10:35:00.782Z,40.73
2023-05-21T10:37:30.708Z,40.67
2023-05-21T10:39:58.930Z,41.02
2023-05-21T10:43:03.860Z,40.54
2023-05-21T10:45:46.527Z,40.42
2023-05-21T10:48:29.665Z,40.13
2023-05-21T10:51:20.390Z,40.85
2023-05-21T10:54:28.744Z,40.16
2023-05-21T10:57:08.095Z,40.22
2023-05-21T10:59:42.665Z,40.15
2023-05-21T11:02:15.059Z,40.04
2023-05-21T11:04:45.771Z,41.30
2023-05-21T11:07:14.226Z,40.54
2023-05-21T11:09:42.303Z,41.35
2023-05-21T11:12:13.091Z,39.37
2023-05-21T11:14:43.638Z,39.89
2023-05-21T11:17:15.247Z,39.80
2023-05-21T11:19:44.580Z,38.27
2023-05-21T11:22:23.604Z,39.35
2023-05-21T11:24:52.002Z,38.95
2023-05-21T11:27:34.708Z,38.98
2023-05-21T11:30:06.191Z,39.06
2023-05-21T11:32:38.894Z,38.85
2023-05-21T11:35:09.137Z,39.00
2023-05-21T11:37:40.776Z,39.45
2023-05-21T11:40:19.941Z,39.19
2023-05-21T11:42:52.093Z,39.30
2023-05-21T11:45:21.110Z,39.09
2023-05-21T11:47:52.430Z,39.59
2023-05-21T11:50:20.973Z,38.76
2023-05-21T11:52:51.122Z,39.15
2023-05-21T11:55:23.684Z,38.90
2023-05-21T11:57:55.263Z,38.73
2023-05-21T12:00:23.823Z,39.04
2023-05-21T12:02:56.975Z,39.01
2023-05-21T12:05:27.287Z,39.30
2023-05-21T12:07:56.781Z,38.28
2023-05-21T12:10:25.085Z,38.91
2023-05-21T12:12:57.081Z,39.17
2023-05-21T12:15:27.795Z,38.94
2023-05-21T12:17:58.159Z,38.55
2023-05-21T12:20:28.755Z,38.81
2023-05-21T12:23:00.861Z,38.46
2023-05-21T12:25:30.172Z,38.92
2023-05-21T12:27:59.024Z,37.94
2023-05-21T12:30:27.701Z,38.84
2023-05-21T12:33:02.591Z,37.92
2023-05-21T12:35:33.032Z,38.19
2023-05-21T12:38:04.124Z,38.08
2023-05-21T12:40:40.617Z,39.40
2023-05-21T12:43:09.917Z,39.10
2023-05-21T12:45:41.257Z,39.58
2023-05-21T12:48:12.178Z,40.09
2023-05-21T12:50:42.270Z,39.24
2023-05-21T12:53:12.646Z,38.63
2023-05-21T12:55:41.346Z,37.65
2023-05-21T12:58:09.638Z,37.88
2023-05-21T13:00:38.381Z,37.90
2023-05-21T13:03:16.762Z,38.40
2023-05-21T13:05:45.752Z,38.39
2023-05-21T13:08:15.878Z,38.35
2023-05-21T13:10:44.172Z,38.34
2023-05-21T13:13:12.538Z,37.91
2023-05-21T13:15:40.724Z,37.39
2023-05-21T13:18:13.505Z,36.59
2023-05-21T13:20:41.660Z,37.23
2023-05-21T13:23:11.915Z,36.96
2023-05-21T13:25:40.220Z,38.50
2023-05-21T13:28:18.088Z,38.13
2023-05-21T13:30:46.616Z,38.42
2023-05-21T13:33:17.603Z,38.55
2023-05-21T13:35:51.160Z,38.75
2023-05-21T13:38:19.294Z,37.90
2023-05-21T13:40:47.427Z,37.88
2023-05-21T13:43:16.709Z,38.11
2023-05-21T13:45:45.156Z,36.32
2023-05-21T13:48:14.441Z,36.89
2023-05-21T13:50:45.168Z,37.33
2023-05-21T13:53:13.493Z,37.25
2023-05-21T13:55:41.589Z,36.40
2023-05-21T13:58:09.899Z,36.89
2023-05-21T14:00:38.276Z,37.15
2023-05-21T14:03:07.825Z,35.91
2023-05-21T14:05:36.459Z,36.85
2023-05-21T14:08:06.825Z,37.41
2023-05-21T14:10:35.201Z,36.75
2023-05-21T14:13:15.407Z,36.64
2023-05-21T14:15:46.906Z,37.42
2023-05-21T14:18:15.826Z,37.41
2023-05-21T14:20:43.940Z,36.78
2023-05-21T14:23:13.496Z,36.62
2023-05-21T14:25:43.089Z,36.14
2023-05-21T14:28:11.737Z,36.44
2023-05-21T14:30:39.963Z,36.59
2023-05-21T14:33:08.605Z,37.25
2023-05-21T14:35:39.702Z,36.88
2023-05-21T14:38:07.832Z,36.53
2023-05-21T14:40:39.868Z,35.70
2023-05-21T14:43:08.467Z,35.63
2023-05-21T14:45:37.251Z,36.07
2023-05-21T14:48:08.784Z,36.30
2023-05-21T14:50:37.519Z,35.72
2023-05-21T14:53:06.682Z,34.94
2023-05-21T14:55:36.858Z,35.80
2023-05-21T14:58:09.108Z,36.12
2023-05-21T15:00:38.422Z,35.95
2023-05-21T15:03:07.744Z,36.10
2023-05-21T15:05:36.395Z,35.91
2023-05-21T15:08:06.180Z,34.79
2023-05-21T15:10:34.362Z,36.10
2023-05-21T15:13:03.343Z,36.13
2023-05-21T15:15:33.255Z,35.59
2023-05-21T15:18:05.296Z,35.43
2023-05-21T15:20:33.588Z,35.83
2023-05-21T15:25:34.560Z,35.03
2023-05-21T15:28:02.714Z,35.35
2023-05-21T15:30:32.772Z,35.38
2023-05-21T15:33:01.450Z,33.70
2023-05-21T15:35:31.312Z,32.76
2023-05-21T15:37:59.586Z,30.34
2023-05-21T15:40:28.132Z,28.90
2023-05-21T15:42:56.325Z,27.62
2023-05-21T15:45:26.104Z,28.61
2023-05-21T15:47:55.729Z,28.69
2023-05-21T15:50:24.721Z,28.54
2023-05-21T15:52:55.336Z,28.08
2023-05-21T15:55:23.614Z,30.04
2023-05-21T15:57:51.700Z,30.68
2023-05-21T16:00:19.825Z,31.16
2023-05-21T16:02:48.127Z,32.20
2023-05-21T16:05:17.784Z,33.17
2023-05-21T16:07:46.297Z,33.63
2023-05-21T16:10:14.431Z,34.45
2023-05-21T16:12:42.676Z,34.91
2023-05-21T16:15:11.194Z,34.26
2023-05-21T16:17:39.426Z,34.45
2023-05-21T16:20:08.989Z,34.49
2023-05-21T16:22:38.990Z,34.67
2023-05-21T16:25:08.637Z,33.77
2023-05-21T16:27:37.460Z,33.69
2023-05-21T16:30:07.560Z,32.80
2023-05-21T16:32:35.808Z,32.37
2023-05-21T16:35:06.332Z,31.92
2023-05-21T16:37:35.837Z,31.53
2023-05-21T16:40:06.676Z,30.94
2023-05-21T16:42:34.745Z,29.55
2023-05-21T16:45:02.944Z,28.98
2023-05-21T16:47:31.922Z,28.79
2023-05-21T16:50:00.908Z,28.31
2023-05-21T16:52:29.374Z,28.47
2023-05-21T16:54:57.455Z,27.69
2023-05-21T16:57:27.044Z,27.92
2023-05-21T16:59:55.976Z,28.13
2023-05-21T17:02:24.982Z,28.33
2023-05-21T17:04:55.248Z,27.76
2023-05-21T17:07:23.452Z,27.67
2023-05-21T17:09:51.628Z,27.68
2023-05-21T17:12:19.741Z,27.40
2023-05-21T17:14:52.456Z,26.82
2023-05-21T17:17:20.542Z,26.86
2023-05-21T17:19:48.619Z,27.13
2023-05-21T17:22:16.775Z,26.26
2023-05-21T17:24:44.831Z,26.74
2023-05-21T17:27:13.350Z,26.58
2023-05-21T17:29:42.733Z,26.61
2023-05-21T17:32:13.396Z,26.63
2023-05-21T17:34:43.086Z,26.77
2023-05-21T17:37:11.254Z,26.34
2023-05-21T17:39:39.597Z,27.11
2023-05-21T17:42:07.781Z,27.25
2023-05-21T17:44:39.079Z,27.33
2023-05-21T17:47:08.893Z,27.46
2023-05-21T17:49:41.747Z,26.94
2023-05-21T17:52:09.898Z,27.28
2023-05-21T17:54:38.208Z,27.55
2023-05-21T17:57:06.747Z,27.96
2023-05-21T17:59:35.009Z,27.89
2023-05-21T18:02:03.100Z,27.56
2023-05-21T18:04:31.786Z,27.85
2023-05-21T18:07:01.937Z,28.67
2023-05-21T18:09:30.059Z,28.41
2023-05-21T18:11:58.412Z,28.23
2023-05-21T18:14:28.037Z,28.75
2023-05-21T18:16:56.583Z,29.47
2023-05-21T18:19:24.765Z,29.50
2023-05-21T18:21:54.079Z,30.38
2023-05-21T18:24:24.143Z,30.00
2023-05-21T18:26:52.255Z,30.76
2023-05-21T18:29:20.459Z,30.64
2023-05-21T18:31:48.621Z,30.95
2023-05-21T18:34:17.538Z,32.19
2023-05-21T18:36:45.855Z,32.70
2023-05-21T18:39:13.934Z,33.84
2023-05-21T18:41:43.552Z,34.43
2023-05-21T18:44:12.075Z,34.98
2023-05-21T18:46:40.302Z,36.27
2023-05-21T18:49:08.459Z,36.37
2023-05-21T18:51:36.949Z,37.19
2023-05-21T18:54:05.647Z,37.33
2023-05-21T18:56:33.790Z,38.22
2023-05-21T18:59:03.544Z,39.06
2023-05-21T19:01:31.818Z,39.06
2023-05-21T19:04:00.017Z,39.09
2023-05-21T19:06:28.324Z,40.05
2023-05-21T19:08:56.960Z,40.34
2023-05-21T19:11:27.619Z,40.87
2023-05-21T19:13:55.897Z,41.44
2023-05-21T19:16:25.953Z,42.16
2023-05-21T19:18:54.536Z,42.16
2023-05-21T19:21:22.909Z,42.93
2023-05-21T19:23:53.715Z,43.36
2023-05-21T19:26:23.036Z,43.91
2023-05-21T19:28:53.845Z,44.36
2023-05-21T19:31:22.826Z,44.55
2023-05-21T19:33:52.881Z,44.74
2023-05-21T19:36:22.297Z,45.54
2023-05-21T19:38:52.217Z,45.23
2023-05-21T19:41:21.697Z,45.96
2023-05-21T19:43:49.846Z,46.58
2023-05-21T19:46:20.444Z,47.05
2023-05-21T19:48:48.939Z,47.48
2023-05-21T19:51:19.004Z,48.15
2023-05-21T19:53:47.165Z,48.60
2023-05-21T19:56:16.073Z,49.14
2023-05-21T19:58:47.216Z,49.44
2023-05-21T20:01:17.572Z,50.16
2023-05-21T20:03:46.545Z,50.04
2023-05-21T20:06:19.293Z,50.23
2023-05-21T20:08:49.222Z,50.78
2023-05-21T20:11:23.508Z,51.00
2023-05-21T20:13:53.177Z,51.21
2023-05-21T20:16:21.617Z,51.81
2023-05-21T20:18:50.404Z,52.24
2023-05-21T20:21:24.199Z,52.88
2023-05-21T20:23:54.758Z,52.35
2023-05-21T20:26:23.258Z,52.87
2023-05-21T20:28:51.342Z,52.93
2023-05-21T20:31:20.347Z,53.39
2023-05-21T20:33:50.763Z,53.28
2023-05-21T20:36:21.373Z,53.74
2023-05-21T20:38:49.609Z,53.76
2023-05-21T20:41:20.136Z,53.75
2023-05-21T20:43:48.382Z,54.24
2023-05-21T20:46:18.522Z,53.94
2023-05-21T20:48:47.432Z,54.10
2023-05-21T20:51:16.213Z,54.34
2023-05-21T20:53:44.520Z,54.53
2023-05-21T20:56:21.766Z,54.53
2023-05-21T20:58:56.546Z,54.48
2023-05-21T21:01:25.312Z,55.27
2023-05-21T21:03:53.872Z,54.85
2023-05-21T21:06:22.659Z,55.37
2023-05-21T21:08:50.741Z,55.02
2023-05-21T21:11:19.448Z,55.18
2023-05-21T21:13:48.001Z,55.54
2023-05-21T21:16:18.223Z,56.26
2023-05-21T21:18:47.298Z,56.39
2023-05-21T21:21:16.215Z,56.35
2023-05-21T21:23:44.347Z,56.87
2023-05-21T21:26:12.527Z,57.47
2023-05-21T21:28:40.751Z,57.67
2023-05-21T21:31:09.607Z,57.63
2023-05-21T21:33:39.583Z,58.33
2023-05-21T21:36:12.206Z,58.31
2023-05-21T21:38:40.319Z,58.49
2023-05-21T21:41:09.601Z,58.16
2023-05-21T21:43:38.096Z,58.53
2023-05-21T21:46:26.935Z,59.28
2023-05-21T21:48:56.494Z,59.29
2023-05-21T21:51:24.700Z,59.38
2023-05-21T21:53:52.884Z,59.36
2023-05-21T21:56:22.254Z,60.01
2023-05-21T21:58:50.349Z,60.36
2023-05-21T22:01:19.431Z,60.49
2023-05-21T22:03:48.844Z,60.79
2023-05-21T22:06:19.271Z,61.31
2023-05-21T22:08:47.383Z,61.08
2023-05-21T22:11:17.097Z,61.17
2023-05-21T22:13:45.493Z,61.45
2023-05-21T22:16:13.676Z,62.15
2023-05-21T22:18:42.104Z,63.34
2023-05-21T22:21:14.441Z,64.29
2023-05-21T22:23:45.382Z,64.22
2023-05-21T22:26:14.001Z,64.79
2023-05-21T22:28:42.541Z,65.77
2023-05-21T22:31:11.664Z,66.10
2023-05-21T22:33:40.894Z,66.36
2023-05-21T22:36:11.521Z,66.02
2023-05-21T22:38:39.739Z,66.52
2023-05-21T22:41:10.884Z,67.67
2023-05-21T22:43:39.043Z,67.40
2023-05-21T22:46:07.715Z,68.07
2023-05-21T22:48:37.424Z,67.35
2023-05-21T22:51:06.189Z,67.13
2023-05-21T22:53:35.699Z,67.18
2023-05-21T22:56:04.240Z,67.59
2023-05-21T22:58:34.114Z,67.69
2023-05-21T23:01:02.973Z,67.82
2023-05-21T23:03:31.699Z,68.72
2023-05-21T23:05:59.806Z,68.88
2023-05-21T23:08:28.342Z,69.92
2023-05-21T23:10:56.737Z,70.18
2023-05-21T23:13:25.245Z,70.19
2023-05-21T23:15:58.849Z,69.91
2023-05-21T23:18:27.097Z,70.56
2023-05-21T23:20:56.538Z,70.48
2023-05-21T23:23:24.807Z,71.13
2023-05-21T23:25:57.453Z,70.39
2023-05-21T23:28:25.846Z,70.96
2023-05-21T23:30:55.489Z,71.85
2023-05-21T23:33:23.914Z,72.72
2023-05-21T23:35:53.460Z,73.45
2023-05-21T23:38:22.021Z,73.41
2023-05-21T23:40:51.168Z,73.29
2023-05-21T23:43:19.322Z,74.00
2023-05-21T23:45:47.496Z,73.66
2023-05-21T23:48:17.100Z,74.28
2023-05-21T23:50:45.745Z,74.87
2023-05-21T23:53:14.294Z,74.96
2023-05-21T23:55:42.802Z,74.76
2023-05-21T23:58:10.991Z,76.26
